sensor_id;sensor_type;location;lat;lon;timestamp;P1;durP1;ratioP1;P2;durP2;ratioP2
37297;SDS011;30517;51.932;4.278;2022-10-04T00:01:09;6.30;;;2.20;;
37297;SDS011;30517;51.932;4.278;2022-10-04T00:03:53;4.28;;;1.60;;
37297;SDS011;30517;51.932;4.278;2022-10-04T00:06:46;3.20;;;1.52;;
37297;SDS011;30517;51.932;4.278;2022-10-04T00:09:33;5.55;;;2.00;;
37297;SDS011;30517;51.932;4.278;2022-10-04T00:12:25;5.13;;;1.63;;
37297;SDS011;30517;51.932;4.278;2022-10-04T00:15:21;4.22;;;1.75;;
37297;SDS011;30517;51.932;4.278;2022-10-04T00:34:50;3.15;;;1.50;;
37297;SDS011;30517;51.932;4.278;2022-10-04T00:37:51;4.38;;;1.67;;
37297;SDS011;30517;51.932;4.278;2022-10-04T00:40:34;4.05;;;1.77;;
37297;SDS011;30517;51.932;4.278;2022-10-04T00:43:20;3.30;;;1.60;;
37297;SDS011;30517;51.932;4.278;2022-10-04T00:46:20;3.55;;;1.60;;
37297;SDS011;30517;51.932;4.278;2022-10-04T00:49:03;4.05;;;1.75;;
37297;SDS011;30517;51.932;4.278;2022-10-04T00:54:59;3.85;;;1.85;;
37297;SDS011;30517;51.932;4.278;2022-10-04T00:57:46;3.08;;;1.67;;
37297;SDS011;30517;51.932;4.278;2022-10-04T01:00:33;4.82;;;1.70;;
37297;SDS011;30517;51.932;4.278;2022-10-04T01:03:21;4.10;;;1.83;;
37297;SDS011;30517;51.932;4.278;2022-10-04T01:06:09;4.15;;;1.92;;
37297;SDS011;30517;51.932;4.278;2022-10-04T01:08:53;6.00;;;2.20;;
37297;SDS011;30517;51.932;4.278;2022-10-04T01:11:41;4.97;;;1.85;;
37297;SDS011;30517;51.932;4.278;2022-10-04T01:14:35;5.55;;;2.03;;
37297;SDS011;30517;51.932;4.278;2022-10-04T01:17:24;4.00;;;1.83;;
37297;SDS011;30517;51.932;4.278;2022-10-04T01:20:22;5.03;;;2.08;;
37297;SDS011;30517;51.932;4.278;2022-10-04T01:23:10;3.83;;;1.70;;
37297;SDS011;30517;51.932;4.278;2022-10-04T01:29:25;4.70;;;2.15;;
37297;SDS011;30517;51.932;4.278;2022-10-04T01:32:07;6.68;;;2.78;;
37297;SDS011;30517;51.932;4.278;2022-10-04T01:34:48;3.75;;;1.95;;
37297;SDS011;30517;51.932;4.278;2022-10-04T01:37:29;4.40;;;2.00;;
37297;SDS011;30517;51.932;4.278;2022-10-04T01:40:10;4.78;;;2.20;;
37297;SDS011;30517;51.932;4.278;2022-10-04T01:42:52;4.22;;;1.80;;
37297;SDS011;30517;51.932;4.278;2022-10-04T01:45:44;4.22;;;1.98;;
37297;SDS011;30517;51.932;4.278;2022-10-04T01:48:29;4.93;;;1.75;;
37297;SDS011;30517;51.932;4.278;2022-10-04T01:51:15;5.97;;;1.98;;
37297;SDS011;30517;51.932;4.278;2022-10-04T01:56:51;3.67;;;1.90;;
37297;SDS011;30517;51.932;4.278;2022-10-04T02:00:22;6.13;;;1.90;;
37297;SDS011;30517;51.932;4.278;2022-10-04T02:02:50;4.63;;;1.95;;
37297;SDS011;30517;51.932;4.278;2022-10-04T02:05:50;4.38;;;2.38;;
37297;SDS011;30517;51.932;4.278;2022-10-04T02:08:35;4.20;;;2.53;;
37297;SDS011;30517;51.932;4.278;2022-10-04T02:11:19;3.95;;;2.30;;
37297;SDS011;30517;51.932;4.278;2022-10-04T02:14:00;4.35;;;1.90;;
37297;SDS011;30517;51.932;4.278;2022-10-04T02:16:42;5.72;;;2.55;;
37297;SDS011;30517;51.932;4.278;2022-10-04T02:19:27;3.83;;;2.05;;
37297;SDS011;30517;51.932;4.278;2022-10-04T02:22:14;6.05;;;2.60;;
37297;SDS011;30517;51.932;4.278;2022-10-04T02:24:56;5.25;;;2.78;;
37297;SDS011;30517;51.932;4.278;2022-10-04T02:27:37;5.90;;;2.15;;
37297;SDS011;30517;51.932;4.278;2022-10-04T02:30:18;4.63;;;2.42;;
37297;SDS011;30517;51.932;4.278;2022-10-04T02:32:59;6.03;;;2.30;;
37297;SDS011;30517;51.932;4.278;2022-10-04T02:35:44;4.43;;;2.45;;
37297;SDS011;30517;51.932;4.278;2022-10-04T02:38:28;5.57;;;2.95;;
37297;SDS011;30517;51.932;4.278;2022-10-04T02:44:11;4.70;;;2.28;;
37297;SDS011;30517;51.932;4.278;2022-10-04T02:47:03;4.72;;;2.38;;
37297;SDS011;30517;51.932;4.278;2022-10-04T02:49:56;6.18;;;2.90;;
37297;SDS011;30517;51.932;4.278;2022-10-04T02:52:44;5.75;;;2.28;;
37297;SDS011;30517;51.932;4.278;2022-10-04T02:55:29;5.50;;;2.67;;
37297;SDS011;30517;51.932;4.278;2022-10-04T02:58:12;5.07;;;2.60;;
37297;SDS011;30517;51.932;4.278;2022-10-04T03:00:58;4.85;;;2.35;;
37297;SDS011;30517;51.932;4.278;2022-10-04T03:03:39;5.80;;;2.58;;
37297;SDS011;30517;51.932;4.278;2022-10-04T03:06:27;4.70;;;2.60;;
37297;SDS011;30517;51.932;4.278;2022-10-04T03:09:11;5.40;;;2.05;;
37297;SDS011;30517;51.932;4.278;2022-10-04T03:11:53;4.95;;;2.45;;
37297;SDS011;30517;51.932;4.278;2022-10-04T03:14:36;5.32;;;2.90;;
37297;SDS011;30517;51.932;4.278;2022-10-04T03:17:18;4.53;;;2.33;;
37297;SDS011;30517;51.932;4.278;2022-10-04T03:19:59;5.70;;;2.45;;
37297;SDS011;30517;51.932;4.278;2022-10-04T03:22:40;5.60;;;2.78;;
37297;SDS011;30517;51.932;4.278;2022-10-04T03:25:27;4.68;;;2.63;;
37297;SDS011;30517;51.932;4.278;2022-10-04T03:28:24;4.95;;;2.75;;
37297;SDS011;30517;51.932;4.278;2022-10-04T03:31:07;5.30;;;2.85;;
37297;SDS011;30517;51.932;4.278;2022-10-04T03:33:50;5.35;;;2.70;;
37297;SDS011;30517;51.932;4.278;2022-10-04T03:36:31;5.68;;;2.78;;
37297;SDS011;30517;51.932;4.278;2022-10-04T03:39:56;4.72;;;2.58;;
37297;SDS011;30517;51.932;4.278;2022-10-04T03:42:22;5.22;;;2.53;;
37297;SDS011;30517;51.932;4.278;2022-10-04T03:45:13;4.53;;;2.60;;
37297;SDS011;30517;51.932;4.278;2022-10-04T03:47:59;4.85;;;2.50;;
37297;SDS011;30517;51.932;4.278;2022-10-04T03:50:45;6.57;;;2.95;;
37297;SDS011;30517;51.932;4.278;2022-10-04T03:56:26;5.60;;;2.90;;
37297;SDS011;30517;51.932;4.278;2022-10-04T03:59:09;6.00;;;3.15;;
37297;SDS011;30517;51.932;4.278;2022-10-04T04:02:00;6.60;;;3.33;;
37297;SDS011;30517;51.932;4.278;2022-10-04T04:04:51;6.70;;;3.00;;
37297;SDS011;30517;51.932;4.278;2022-10-04T04:08:05;5.53;;;2.92;;
37297;SDS011;30517;51.932;4.278;2022-10-04T04:10:53;5.88;;;2.65;;
37297;SDS011;30517;51.932;4.278;2022-10-04T04:16:19;6.05;;;3.30;;
37297;SDS011;30517;51.932;4.278;2022-10-04T04:19:09;5.50;;;3.00;;
37297;SDS011;30517;51.932;4.278;2022-10-04T04:21:52;4.97;;;2.72;;
37297;SDS011;30517;51.932;4.278;2022-10-04T04:24:34;11.10;;;6.13;;
37297;SDS011;30517;51.932;4.278;2022-10-04T04:27:15;12.15;;;5.53;;
37297;SDS011;30517;51.932;4.278;2022-10-04T04:29:58;10.13;;;6.30;;
37297;SDS011;30517;51.932;4.278;2022-10-04T04:32:41;9.35;;;5.80;;
37297;SDS011;30517;51.932;4.278;2022-10-04T04:35:30;9.70;;;5.68;;
37297;SDS011;30517;51.932;4.278;2022-10-04T04:38:19;9.23;;;5.38;;
37297;SDS011;30517;51.932;4.278;2022-10-04T04:41:08;8.68;;;5.75;;
37297;SDS011;30517;51.932;4.278;2022-10-04T04:43:50;10.80;;;5.75;;
37297;SDS011;30517;51.932;4.278;2022-10-04T04:46:31;11.23;;;5.65;;
37297;SDS011;30517;51.932;4.278;2022-10-04T04:49:12;8.82;;;5.68;;
37297;SDS011;30517;51.932;4.278;2022-10-04T04:51:56;8.95;;;4.95;;
37297;SDS011;30517;51.932;4.278;2022-10-04T04:54:37;10.85;;;5.10;;
37297;SDS011;30517;51.932;4.278;2022-10-04T04:57:18;9.98;;;5.18;;
37297;SDS011;30517;51.932;4.278;2022-10-04T04:59:59;9.50;;;4.90;;
37297;SDS011;30517;51.932;4.278;2022-10-04T05:02:41;8.65;;;5.18;;
37297;SDS011;30517;51.932;4.278;2022-10-04T05:05:31;8.13;;;4.72;;
37297;SDS011;30517;51.932;4.278;2022-10-04T05:08:25;8.18;;;4.75;;
37297;SDS011;30517;51.932;4.278;2022-10-04T05:14:07;9.40;;;4.47;;
37297;SDS011;30517;51.932;4.278;2022-10-04T05:16:50;10.48;;;4.80;;
37297;SDS011;30517;51.932;4.278;2022-10-04T05:19:34;9.65;;;5.43;;
37297;SDS011;30517;51.932;4.278;2022-10-04T05:22:18;9.18;;;5.10;;
37297;SDS011;30517;51.932;4.278;2022-10-04T05:25:05;10.02;;;5.28;;
37297;SDS011;30517;51.932;4.278;2022-10-04T05:27:54;8.80;;;4.72;;
37297;SDS011;30517;51.932;4.278;2022-10-04T05:33:46;8.90;;;4.93;;
37297;SDS011;30517;51.932;4.278;2022-10-04T05:39:42;7.07;;;4.30;;
37297;SDS011;30517;51.932;4.278;2022-10-04T05:45:21;8.98;;;5.05;;
37297;SDS011;30517;51.932;4.278;2022-10-04T05:48:05;7.70;;;5.00;;
37297;SDS011;30517;51.932;4.278;2022-10-04T05:50:48;9.90;;;5.18;;
37297;SDS011;30517;51.932;4.278;2022-10-04T05:56:29;8.48;;;4.82;;
37297;SDS011;30517;51.932;4.278;2022-10-04T05:59:35;8.80;;;5.13;;
37297;SDS011;30517;51.932;4.278;2022-10-04T06:02:48;9.18;;;4.55;;
37297;SDS011;30517;51.932;4.278;2022-10-04T06:11:57;8.18;;;4.40;;
37297;SDS011;30517;51.932;4.278;2022-10-04T06:21:46;8.90;;;5.25;;
37297;SDS011;30517;51.932;4.278;2022-10-04T06:24:38;8.02;;;4.40;;
37297;SDS011;30517;51.932;4.278;2022-10-04T06:30:25;7.53;;;4.75;;
37297;SDS011;30517;51.932;4.278;2022-10-04T06:36:12;8.48;;;4.32;;
37297;SDS011;30517;51.932;4.278;2022-10-04T06:48:59;8.13;;;5.05;;
37297;SDS011;30517;51.932;4.278;2022-10-04T06:52:00;7.05;;;4.35;;
37297;SDS011;30517;51.932;4.278;2022-10-04T07:00:58;8.40;;;4.80;;
37297;SDS011;30517;51.932;4.278;2022-10-04T07:03:51;6.70;;;4.13;;
37297;SDS011;30517;51.932;4.278;2022-10-04T07:06:46;6.18;;;4.00;;
37297;SDS011;30517;51.932;4.278;2022-10-04T07:10:08;6.97;;;4.00;;
37297;SDS011;30517;51.932;4.278;2022-10-04T07:13:03;8.35;;;4.13;;
37297;SDS011;30517;51.932;4.278;2022-10-04T07:16:05;7.25;;;4.05;;
37297;SDS011;30517;51.932;4.278;2022-10-04T07:19:06;7.00;;;4.22;;
37297;SDS011;30517;51.932;4.278;2022-10-04T07:30:59;5.95;;;3.30;;
37297;SDS011;30517;51.932;4.278;2022-10-04T07:33:43;7.82;;;4.43;;
37297;SDS011;30517;51.932;4.278;2022-10-04T07:36:48;9.90;;;5.18;;
37297;SDS011;30517;51.932;4.278;2022-10-04T07:39:38;8.13;;;4.63;;
37297;SDS011;30517;51.932;4.278;2022-10-04T07:42:34;6.65;;;4.18;;
37297;SDS011;30517;51.932;4.278;2022-10-04T07:45:32;6.10;;;3.58;;
37297;SDS011;30517;51.932;4.278;2022-10-04T07:48:19;5.95;;;3.53;;
37297;SDS011;30517;51.932;4.278;2022-10-04T07:51:14;6.43;;;3.85;;
37297;SDS011;30517;51.932;4.278;2022-10-04T07:54:20;6.72;;;4.00;;
37297;SDS011;30517;51.932;4.278;2022-10-04T07:57:13;8.85;;;3.95;;
37297;SDS011;30517;51.932;4.278;2022-10-04T08:06:04;7.25;;;4.63;;
37297;SDS011;30517;51.932;4.278;2022-10-04T08:12:19;8.93;;;3.92;;
37297;SDS011;30517;51.932;4.278;2022-10-04T08:15:13;7.97;;;3.83;;
37297;SDS011;30517;51.932;4.278;2022-10-04T08:27:15;8.43;;;4.93;;
37297;SDS011;30517;51.932;4.278;2022-10-04T08:30:07;9.15;;;4.43;;
37297;SDS011;30517;51.932;4.278;2022-10-04T08:36:05;8.60;;;4.30;;
37297;SDS011;30517;51.932;4.278;2022-10-04T08:38:59;7.15;;;4.43;;
37297;SDS011;30517;51.932;4.278;2022-10-04T08:41:44;9.73;;;4.47;;
37297;SDS011;30517;51.932;4.278;2022-10-04T09:00:29;8.18;;;4.20;;
37297;SDS011;30517;51.932;4.278;2022-10-04T09:06:30;7.95;;;4.13;;
37297;SDS011;30517;51.932;4.278;2022-10-04T09:09:30;7.60;;;4.25;;
37297;SDS011;30517;51.932;4.278;2022-10-04T09:16:04;6.45;;;3.85;;
37297;SDS011;30517;51.932;4.278;2022-10-04T09:18:48;7.25;;;4.25;;
37297;SDS011;30517;51.932;4.278;2022-10-04T09:27:15;8.23;;;4.25;;
37297;SDS011;30517;51.932;4.278;2022-10-04T09:39:52;7.68;;;4.25;;
37297;SDS011;30517;51.932;4.278;2022-10-04T10:06:43;6.03;;;3.40;;
37297;SDS011;30517;51.932;4.278;2022-10-04T10:09:39;8.82;;;4.55;;
37297;SDS011;30517;51.932;4.278;2022-10-04T10:12:52;7.80;;;4.40;;
37297;SDS011;30517;51.932;4.278;2022-10-04T10:16:09;6.97;;;4.25;;
37297;SDS011;30517;51.932;4.278;2022-10-04T10:37:46;7.25;;;3.58;;
37297;SDS011;30517;51.932;4.278;2022-10-04T10:40:52;6.00;;;4.00;;
37297;SDS011;30517;51.932;4.278;2022-10-04T11:02:35;7.05;;;3.67;;
37297;SDS011;30517;51.932;4.278;2022-10-04T11:17:36;7.20;;;3.63;;
37297;SDS011;30517;51.932;4.278;2022-10-04T11:23:58;6.82;;;3.63;;
37297;SDS011;30517;51.932;4.278;2022-10-04T11:29:53;7.10;;;3.95;;
37297;SDS011;30517;51.932;4.278;2022-10-04T11:54:21;7.25;;;4.00;;
37297;SDS011;30517;51.932;4.278;2022-10-04T11:57:32;6.70;;;3.88;;
37297;SDS011;30517;51.932;4.278;2022-10-04T12:03:53;7.00;;;4.07;;
37297;SDS011;30517;51.932;4.278;2022-10-04T12:25:26;6.43;;;4.18;;
37297;SDS011;30517;51.932;4.278;2022-10-04T12:28:21;7.43;;;3.75;;
37297;SDS011;30517;51.932;4.278;2022-10-04T12:34:27;7.90;;;3.95;;
37297;SDS011;30517;51.932;4.278;2022-10-04T12:37:35;6.63;;;3.80;;
37297;SDS011;30517;51.932;4.278;2022-10-04T12:40:50;6.85;;;3.70;;
37297;SDS011;30517;51.932;4.278;2022-10-04T12:43:51;8.10;;;4.22;;
37297;SDS011;30517;51.932;4.278;2022-10-04T12:46:42;6.38;;;3.70;;
37297;SDS011;30517;51.932;4.278;2022-10-04T12:52:29;6.15;;;3.42;;
37297;SDS011;30517;51.932;4.278;2022-10-04T12:55:45;6.90;;;3.95;;
37297;SDS011;30517;51.932;4.278;2022-10-04T12:58:43;6.60;;;3.63;;
37297;SDS011;30517;51.932;4.278;2022-10-04T13:04:29;7.05;;;3.90;;
37297;SDS011;30517;51.932;4.278;2022-10-04T13:16:36;9.75;;;6.03;;
37297;SDS011;30517;51.932;4.278;2022-10-04T13:19:29;10.07;;;5.60;;
37297;SDS011;30517;51.932;4.278;2022-10-04T13:25:22;9.80;;;5.45;;
37297;SDS011;30517;51.932;4.278;2022-10-04T13:31:19;13.30;;;7.13;;
37297;SDS011;30517;51.932;4.278;2022-10-04T13:34:17;14.90;;;7.78;;
37297;SDS011;30517;51.932;4.278;2022-10-04T13:40:19;11.65;;;6.93;;
37297;SDS011;30517;51.932;4.278;2022-10-04T13:46:25;11.52;;;6.40;;
37297;SDS011;30517;51.932;4.278;2022-10-04T13:52:46;9.80;;;5.47;;
37297;SDS011;30517;51.932;4.278;2022-10-04T13:59:26;9.85;;;5.13;;
37297;SDS011;30517;51.932;4.278;2022-10-04T14:02:26;8.60;;;4.55;;
37297;SDS011;30517;51.932;4.278;2022-10-04T14:11:50;7.07;;;4.63;;
37297;SDS011;30517;51.932;4.278;2022-10-04T14:15:28;8.48;;;4.72;;
37297;SDS011;30517;51.932;4.278;2022-10-04T14:27:42;6.45;;;4.18;;
37297;SDS011;30517;51.932;4.278;2022-10-04T14:43:30;6.50;;;3.88;;
37297;SDS011;30517;51.932;4.278;2022-10-04T14:49:46;6.93;;;3.78;;
37297;SDS011;30517;51.932;4.278;2022-10-04T14:58:23;6.22;;;3.83;;
37297;SDS011;30517;51.932;4.278;2022-10-04T15:01:23;6.38;;;3.63;;
37297;SDS011;30517;51.932;4.278;2022-10-04T15:04:15;7.00;;;3.55;;
37297;SDS011;30517;51.932;4.278;2022-10-04T15:07:19;6.78;;;3.50;;
37297;SDS011;30517;51.932;4.278;2022-10-04T15:10:26;5.93;;;3.45;;
37297;SDS011;30517;51.932;4.278;2022-10-04T15:13:30;6.20;;;3.38;;
37297;SDS011;30517;51.932;4.278;2022-10-04T15:16:21;8.13;;;3.80;;
37297;SDS011;30517;51.932;4.278;2022-10-04T15:19:06;6.32;;;3.25;;
37297;SDS011;30517;51.932;4.278;2022-10-04T15:22:14;6.70;;;3.55;;
37297;SDS011;30517;51.932;4.278;2022-10-04T15:25:34;5.55;;;2.80;;
37297;SDS011;30517;51.932;4.278;2022-10-04T15:28:28;6.25;;;3.10;;
37297;SDS011;30517;51.932;4.278;2022-10-04T15:31:25;6.38;;;3.40;;
37297;SDS011;30517;51.932;4.278;2022-10-04T15:37:37;5.57;;;3.50;;
37297;SDS011;30517;51.932;4.278;2022-10-04T15:46:24;5.57;;;3.28;;
37297;SDS011;30517;51.932;4.278;2022-10-04T15:55:47;5.90;;;3.25;;
37297;SDS011;30517;51.932;4.278;2022-10-04T15:58:36;5.60;;;3.28;;
37297;SDS011;30517;51.932;4.278;2022-10-04T16:01:39;6.88;;;3.78;;
37297;SDS011;30517;51.932;4.278;2022-10-04T16:07:35;5.85;;;3.17;;
37297;SDS011;30517;51.932;4.278;2022-10-04T16:19:23;10.90;;;6.00;;
37297;SDS011;30517;51.932;4.278;2022-10-04T16:22:28;10.15;;;6.00;;
37297;SDS011;30517;51.932;4.278;2022-10-04T16:25:44;14.68;;;5.95;;
37297;SDS011;30517;51.932;4.278;2022-10-04T16:28:22;9.70;;;5.30;;
37297;SDS011;30517;51.932;4.278;2022-10-04T16:31:37;10.18;;;5.45;;
37297;SDS011;30517;51.932;4.278;2022-10-04T16:34:37;10.30;;;5.82;;
37297;SDS011;30517;51.932;4.278;2022-10-04T16:37:29;8.15;;;5.30;;
37297;SDS011;30517;51.932;4.278;2022-10-04T16:48:58;7.85;;;4.70;;
37297;SDS011;30517;51.932;4.278;2022-10-04T16:51:52;8.35;;;5.32;;
37297;SDS011;30517;51.932;4.278;2022-10-04T16:57:43;8.10;;;4.45;;
37297;SDS011;30517;51.932;4.278;2022-10-04T17:00:30;7.85;;;5.05;;
37297;SDS011;30517;51.932;4.278;2022-10-04T17:03:31;8.90;;;4.45;;
37297;SDS011;30517;51.932;4.278;2022-10-04T17:06:24;7.25;;;4.43;;
37297;SDS011;30517;51.932;4.278;2022-10-04T17:09:28;8.00;;;4.65;;
37297;SDS011;30517;51.932;4.278;2022-10-04T17:12:26;7.28;;;4.47;;
37297;SDS011;30517;51.932;4.278;2022-10-04T17:18:00;8.00;;;4.70;;
37297;SDS011;30517;51.932;4.278;2022-10-04T17:20:49;6.30;;;4.00;;
37297;SDS011;30517;51.932;4.278;2022-10-04T17:23:51;9.10;;;4.25;;
37297;SDS011;30517;51.932;4.278;2022-10-04T17:33:06;7.57;;;4.82;;
37297;SDS011;30517;51.932;4.278;2022-10-04T17:39:01;9.95;;;5.22;;
37297;SDS011;30517;51.932;4.278;2022-10-04T17:45:02;10.68;;;6.07;;
37297;SDS011;30517;51.932;4.278;2022-10-04T17:54:22;9.40;;;5.60;;
37297;SDS011;30517;51.932;4.278;2022-10-04T18:00:47;8.88;;;5.07;;
37297;SDS011;30517;51.932;4.278;2022-10-04T18:03:51;8.80;;;5.22;;
37297;SDS011;30517;51.932;4.278;2022-10-04T18:06:41;8.32;;;5.20;;
37297;SDS011;30517;51.932;4.278;2022-10-04T18:09:47;8.20;;;4.47;;
37297;SDS011;30517;51.932;4.278;2022-10-04T18:12:38;9.18;;;4.82;;
37297;SDS011;30517;51.932;4.278;2022-10-04T18:18:36;9.23;;;4.50;;
37297;SDS011;30517;51.932;4.278;2022-10-04T18:21:21;8.50;;;4.93;;
37297;SDS011;30517;51.932;4.278;2022-10-04T18:26:59;6.82;;;4.32;;
37297;SDS011;30517;51.932;4.278;2022-10-04T18:29:54;7.18;;;4.25;;
37297;SDS011;30517;51.932;4.278;2022-10-04T18:32:55;7.53;;;4.30;;
37297;SDS011;30517;51.932;4.278;2022-10-04T18:35:36;6.55;;;4.05;;
37297;SDS011;30517;51.932;4.278;2022-10-04T18:38:32;6.53;;;4.30;;
37297;SDS011;30517;51.932;4.278;2022-10-04T18:46:39;6.28;;;4.10;;
37297;SDS011;30517;51.932;4.278;2022-10-04T18:49:30;6.20;;;3.78;;
37297;SDS011;30517;51.932;4.278;2022-10-04T18:52:35;6.82;;;3.60;;
37297;SDS011;30517;51.932;4.278;2022-10-04T19:07:45;6.32;;;3.55;;
37297;SDS011;30517;51.932;4.278;2022-10-04T19:13:36;7.18;;;3.95;;
37297;SDS011;30517;51.932;4.278;2022-10-04T19:16:44;6.25;;;3.58;;
37297;SDS011;30517;51.932;4.278;2022-10-04T19:26:08;6.53;;;3.67;;
37297;SDS011;30517;51.932;4.278;2022-10-04T19:32:10;6.10;;;3.65;;
37297;SDS011;30517;51.932;4.278;2022-10-04T19:41:23;7.93;;;3.50;;
37297;SDS011;30517;51.932;4.278;2022-10-04T19:44:25;4.47;;;2.58;;
37297;SDS011;30517;51.932;4.278;2022-10-04T19:50:29;4.88;;;2.80;;
37297;SDS011;30517;51.932;4.278;2022-10-04T19:53:18;4.68;;;2.97;;
37297;SDS011;30517;51.932;4.278;2022-10-04T19:56:03;4.85;;;2.83;;
37297;SDS011;30517;51.932;4.278;2022-10-04T20:01:41;5.43;;;2.65;;
37297;SDS011;30517;51.932;4.278;2022-10-04T20:04:22;5.60;;;2.78;;
37297;SDS011;30517;51.932;4.278;2022-10-04T20:07:22;5.28;;;3.30;;
37297;SDS011;30517;51.932;4.278;2022-10-04T20:10:14;5.32;;;2.90;;
37297;SDS011;30517;51.932;4.278;2022-10-04T20:15:55;5.00;;;2.50;;
37297;SDS011;30517;51.932;4.278;2022-10-04T20:21:24;5.38;;;2.67;;
37297;SDS011;30517;51.932;4.278;2022-10-04T20:24:14;4.72;;;2.40;;
37297;SDS011;30517;51.932;4.278;2022-10-04T20:26:56;4.82;;;2.63;;
37297;SDS011;30517;51.932;4.278;2022-10-04T20:35:41;4.38;;;2.17;;
37297;SDS011;30517;51.932;4.278;2022-10-04T20:41:42;4.68;;;2.38;;
37297;SDS011;30517;51.932;4.278;2022-10-04T20:44:48;4.55;;;2.55;;
37297;SDS011;30517;51.932;4.278;2022-10-04T20:47:43;3.55;;;1.88;;
37297;SDS011;30517;51.932;4.278;2022-10-04T20:50:33;5.30;;;2.30;;
37297;SDS011;30517;51.932;4.278;2022-10-04T20:53:22;3.95;;;2.13;;
37297;SDS011;30517;51.932;4.278;2022-10-04T20:56:07;5.82;;;2.30;;
37297;SDS011;30517;51.932;4.278;2022-10-04T20:59:12;3.63;;;2.00;;
37297;SDS011;30517;51.932;4.278;2022-10-04T21:01:59;6.32;;;1.88;;
37297;SDS011;30517;51.932;4.278;2022-10-04T21:04:43;3.95;;;1.92;;
37297;SDS011;30517;51.932;4.278;2022-10-04T21:07:26;3.65;;;2.08;;
37297;SDS011;30517;51.932;4.278;2022-10-04T21:10:25;4.35;;;2.20;;
37297;SDS011;30517;51.932;4.278;2022-10-04T21:13:36;3.70;;;1.90;;
37297;SDS011;30517;51.932;4.278;2022-10-04T21:24:56;3.58;;;1.83;;
37297;SDS011;30517;51.932;4.278;2022-10-04T21:27:38;3.93;;;1.97;;
37297;SDS011;30517;51.932;4.278;2022-10-04T21:33:03;5.72;;;2.28;;
37297;SDS011;30517;51.932;4.278;2022-10-04T21:35:44;6.20;;;1.80;;
37297;SDS011;30517;51.932;4.278;2022-10-04T21:38:25;3.85;;;2.05;;
37297;SDS011;30517;51.932;4.278;2022-10-04T21:41:05;2.97;;;1.42;;
37297;SDS011;30517;51.932;4.278;2022-10-04T21:43:47;5.18;;;2.03;;
37297;SDS011;30517;51.932;4.278;2022-10-04T21:46:27;3.55;;;1.63;;
37297;SDS011;30517;51.932;4.278;2022-10-04T21:49:08;4.72;;;1.70;;
37297;SDS011;30517;51.932;4.278;2022-10-04T21:51:49;4.40;;;2.00;;
37297;SDS011;30517;51.932;4.278;2022-10-04T21:54:30;3.40;;;1.63;;
37297;SDS011;30517;51.932;4.278;2022-10-04T21:57:11;3.70;;;1.77;;
37297;SDS011;30517;51.932;4.278;2022-10-04T21:59:52;4.57;;;2.10;;
37297;SDS011;30517;51.932;4.278;2022-10-04T22:02:33;4.05;;;1.80;;
37297;SDS011;30517;51.932;4.278;2022-10-04T22:05:14;4.10;;;1.85;;
37297;SDS011;30517;51.932;4.278;2022-10-04T22:07:54;4.30;;;1.60;;
37297;SDS011;30517;51.932;4.278;2022-10-04T22:10:37;3.05;;;1.63;;
37297;SDS011;30517;51.932;4.278;2022-10-04T22:13:19;3.47;;;1.60;;
37297;SDS011;30517;51.932;4.278;2022-10-04T22:15:59;3.88;;;1.60;;
37297;SDS011;30517;51.932;4.278;2022-10-04T22:18:43;2.65;;;1.50;;
37297;SDS011;30517;51.932;4.278;2022-10-04T22:21:24;5.22;;;2.03;;
37297;SDS011;30517;51.932;4.278;2022-10-04T22:24:09;4.13;;;1.77;;
37297;SDS011;30517;51.932;4.278;2022-10-04T22:26:56;4.53;;;1.90;;
37297;SDS011;30517;51.932;4.278;2022-10-04T22:29:37;3.35;;;1.55;;
37297;SDS011;30517;51.932;4.278;2022-10-04T22:32:25;3.30;;;1.60;;
37297;SDS011;30517;51.932;4.278;2022-10-04T22:35:11;2.83;;;1.58;;
37297;SDS011;30517;51.932;4.278;2022-10-04T22:37:53;3.35;;;1.50;;
37297;SDS011;30517;51.932;4.278;2022-10-04T22:40:34;4.38;;;1.80;;
37297;SDS011;30517;51.932;4.278;2022-10-04T22:43:15;3.75;;;1.50;;
37297;SDS011;30517;51.932;4.278;2022-10-04T22:45:56;4.25;;;1.73;;
37297;SDS011;30517;51.932;4.278;2022-10-04T22:48:37;5.15;;;1.90;;
37297;SDS011;30517;51.932;4.278;2022-10-04T22:51:17;3.65;;;1.77;;
37297;SDS011;30517;51.932;4.278;2022-10-04T22:53:59;3.15;;;1.67;;
37297;SDS011;30517;51.932;4.278;2022-10-04T22:56:40;4.50;;;1.60;;
37297;SDS011;30517;51.932;4.278;2022-10-04T22:59:32;3.80;;;1.70;;
37297;SDS011;30517;51.932;4.278;2022-10-04T23:02:16;2.72;;;1.65;;
37297;SDS011;30517;51.932;4.278;2022-10-04T23:05:12;2.90;;;1.25;;
37297;SDS011;30517;51.932;4.278;2022-10-04T23:07:55;3.78;;;1.98;;
37297;SDS011;30517;51.932;4.278;2022-10-04T23:10:36;2.70;;;1.48;;
37297;SDS011;30517;51.932;4.278;2022-10-04T23:13:18;3.28;;;1.52;;
37297;SDS011;30517;51.932;4.278;2022-10-04T23:16:17;3.85;;;1.52;;
37297;SDS011;30517;51.932;4.278;2022-10-04T23:19:04;2.78;;;1.50;;
37297;SDS011;30517;51.932;4.278;2022-10-04T23:21:50;3.33;;;1.58;;
37297;SDS011;30517;51.932;4.278;2022-10-04T23:24:31;3.30;;;1.40;;
37297;SDS011;30517;51.932;4.278;2022-10-04T23:27:13;3.25;;;1.40;;
37297;SDS011;30517;51.932;4.278;2022-10-04T23:29:57;3.10;;;1.55;;
37297;SDS011;30517;51.932;4.278;2022-10-04T23:32:42;1.70;;;1.05;;
37297;SDS011;30517;51.932;4.278;2022-10-04T23:35:25;3.40;;;1.65;;
37297;SDS011;30517;51.932;4.278;2022-10-04T23:38:12;3.88;;;1.42;;
37297;SDS011;30517;51.932;4.278;2022-10-04T23:40:55;3.20;;;1.42;;
37297;SDS011;30517;51.932;4.278;2022-10-04T23:43:36;4.30;;;1.67;;
37297;SDS011;30517;51.932;4.278;2022-10-04T23:46:18;3.95;;;1.40;;
37297;SDS011;30517;51.932;4.278;2022-10-04T23:49:01;3.05;;;1.50;;
37297;SDS011;30517;51.932;4.278;2022-10-04T23:51:42;3.00;;;1.60;;
37297;SDS011;30517;51.932;4.278;2022-10-04T23:54:24;4.07;;;1.50;;
37297;SDS011;30517;51.932;4.278;2022-10-04T23:57:07;3.60;;;1.45;;
